sensor_id;sensor_type;location;lat;lon;timestamp;P1;durP1;ratioP1;P2;durP2;ratioP2
8171;SDS011;4127;47.908;10.850;2022-12-16T15:55:52;26.63;;;20.27;;
8171;SDS011;4127;47.908;10.850;2022-12-16T15:59:34;32.17;;;24.87;;
8171;SDS011;4127;47.908;10.850;2022-12-16T16:07:22;29.07;;;21.63;;
8171;SDS011;4127;47.908;10.850;2022-12-16T16:10:22;25.63;;;18.60;;
8171;SDS011;4127;47.908;10.850;2022-12-16T16:13:29;30.80;;;22.60;;
8171;SDS011;4127;47.908;10.850;2022-12-16T16:16:41;39.20;;;27.73;;
8171;SDS011;4127;47.908;10.850;2022-12-16T16:19:57;31.60;;;21.50;;
8171;SDS011;4127;47.908;10.850;2022-12-16T16:23:13;39.00;;;28.30;;
8171;SDS011;4127;47.908;10.850;2022-12-16T16:26:25;31.97;;;22.60;;
8171;SDS011;4127;47.908;10.850;2022-12-16T16:29:43;32.93;;;23.27;;
8171;SDS011;4127;47.908;10.850;2022-12-16T16:33:00;27.70;;;19.47;;
8171;SDS011;4127;47.908;10.850;2022-12-16T16:36:14;30.43;;;20.90;;
8171;SDS011;4127;47.908;10.850;2022-12-16T16:39:13;28.33;;;19.83;;
8171;SDS011;4127;47.908;10.850;2022-12-16T16:42:33;28.90;;;21.83;;
8171;SDS011;4127;47.908;10.850;2022-12-16T16:45:36;27.63;;;19.80;;
8171;SDS011;4127;47.908;10.850;2022-12-16T16:48:44;29.90;;;22.30;;
8171;SDS011;4127;47.908;10.850;2022-12-16T16:51:56;26.90;;;19.70;;
8171;SDS011;4127;47.908;10.850;2022-12-16T16:55:06;31.00;;;20.73;;
8171;SDS011;4127;47.908;10.850;2022-12-16T16:58:32;25.23;;;18.37;;
8171;SDS011;4127;47.908;10.850;2022-12-16T17:01:32;33.40;;;23.60;;
8171;SDS011;4127;47.908;10.850;2022-12-16T17:04:27;27.70;;;20.60;;
8171;SDS011;4127;47.908;10.850;2022-12-16T17:07:44;27.90;;;20.10;;
8171;SDS011;4127;47.908;10.850;2022-12-16T17:14:19;31.43;;;22.47;;
8171;SDS011;4127;47.908;10.850;2022-12-16T17:17:29;34.50;;;22.80;;
8171;SDS011;4127;47.908;10.850;2022-12-16T17:20:38;32.80;;;22.57;;
8171;SDS011;4127;47.908;10.850;2022-12-16T17:23:44;31.60;;;22.83;;
8171;SDS011;4127;47.908;10.850;2022-12-16T17:27:05;48.97;;;34.77;;
8171;SDS011;4127;47.908;10.850;2022-12-16T17:30:40;38.87;;;27.17;;
8171;SDS011;4127;47.908;10.850;2022-12-16T17:34:12;34.27;;;25.70;;
8171;SDS011;4127;47.908;10.850;2022-12-16T17:37:29;31.77;;;22.57;;
8171;SDS011;4127;47.908;10.850;2022-12-16T17:40:44;31.83;;;22.20;;
8171;SDS011;4127;47.908;10.850;2022-12-16T17:44:05;36.10;;;23.37;;
8171;SDS011;4127;47.908;10.850;2022-12-16T17:47:28;30.07;;;20.87;;
8171;SDS011;4127;47.908;10.850;2022-12-16T17:50:24;33.27;;;23.20;;
8171;SDS011;4127;47.908;10.850;2022-12-16T17:57:32;35.43;;;23.87;;
8171;SDS011;4127;47.908;10.850;2022-12-16T18:00:44;29.90;;;22.03;;
8171;SDS011;4127;47.908;10.850;2022-12-16T18:03:39;31.23;;;23.07;;
8171;SDS011;4127;47.908;10.850;2022-12-16T18:06:41;33.73;;;23.07;;
8171;SDS011;4127;47.908;10.850;2022-12-16T18:09:39;37.30;;;25.53;;
8171;SDS011;4127;47.908;10.850;2022-12-16T18:12:38;31.33;;;21.13;;
8171;SDS011;4127;47.908;10.850;2022-12-16T18:15:55;33.27;;;22.40;;
8171;SDS011;4127;47.908;10.850;2022-12-16T18:19:05;30.73;;;20.80;;
8171;SDS011;4127;47.908;10.850;2022-12-16T18:22:30;34.13;;;23.10;;
8171;SDS011;4127;47.908;10.850;2022-12-16T18:26:11;32.97;;;22.77;;
8171;SDS011;4127;47.908;10.850;2022-12-16T18:29:31;34.43;;;24.53;;
8171;SDS011;4127;47.908;10.850;2022-12-16T18:32:35;30.77;;;22.63;;
8171;SDS011;4127;47.908;10.850;2022-12-16T18:35:46;38.07;;;24.57;;
8171;SDS011;4127;47.908;10.850;2022-12-16T18:38:45;33.40;;;21.63;;
8171;SDS011;4127;47.908;10.850;2022-12-16T18:45:11;29.43;;;20.77;;
8171;SDS011;4127;47.908;10.850;2022-12-16T18:48:07;33.90;;;22.23;;
8171;SDS011;4127;47.908;10.850;2022-12-16T18:51:02;30.40;;;20.60;;
8171;SDS011;4127;47.908;10.850;2022-12-16T18:54:31;31.77;;;20.73;;
8171;SDS011;4127;47.908;10.850;2022-12-16T18:57:32;35.13;;;23.50;;
8171;SDS011;4127;47.908;10.850;2022-12-16T19:01:06;32.00;;;20.53;;
8171;SDS011;4127;47.908;10.850;2022-12-16T19:04:09;34.20;;;21.90;;
8171;SDS011;4127;47.908;10.850;2022-12-16T19:07:02;33.30;;;22.47;;
8171;SDS011;4127;47.908;10.850;2022-12-16T19:10:02;32.50;;;21.83;;
8171;SDS011;4127;47.908;10.850;2022-12-16T19:13:21;36.27;;;23.17;;
8171;SDS011;4127;47.908;10.850;2022-12-16T19:16:21;37.47;;;23.63;;
8171;SDS011;4127;47.908;10.850;2022-12-16T19:19:36;36.77;;;23.10;;
8171;SDS011;4127;47.908;10.850;2022-12-16T19:22:35;35.80;;;22.87;;
8171;SDS011;4127;47.908;10.850;2022-12-16T19:25:41;42.77;;;26.13;;
8171;SDS011;4127;47.908;10.850;2022-12-16T19:29:00;39.70;;;26.13;;
8171;SDS011;4127;47.908;10.850;2022-12-16T19:32:46;37.47;;;23.80;;
8171;SDS011;4127;47.908;10.850;2022-12-16T19:36:01;39.23;;;24.37;;
8171;SDS011;4127;47.908;10.850;2022-12-16T19:38:52;39.90;;;23.83;;
8171;SDS011;4127;47.908;10.850;2022-12-16T19:45:24;34.20;;;20.43;;
8171;SDS011;4127;47.908;10.850;2022-12-16T19:48:22;36.07;;;23.67;;
8171;SDS011;4127;47.908;10.850;2022-12-16T19:51:11;34.30;;;22.10;;
8171;SDS011;4127;47.908;10.850;2022-12-16T19:54:13;33.60;;;21.40;;
8171;SDS011;4127;47.908;10.850;2022-12-16T19:57:24;37.70;;;23.17;;
8171;SDS011;4127;47.908;10.850;2022-12-16T20:00:10;41.13;;;24.33;;
8171;SDS011;4127;47.908;10.850;2022-12-16T20:03:14;40.20;;;24.80;;
8171;SDS011;4127;47.908;10.850;2022-12-16T20:06:06;38.60;;;24.83;;
8171;SDS011;4127;47.908;10.850;2022-12-16T20:09:12;40.10;;;23.50;;
8171;SDS011;4127;47.908;10.850;2022-12-16T20:12:14;40.87;;;24.73;;
8171;SDS011;4127;47.908;10.850;2022-12-16T20:15:19;38.63;;;24.43;;
8171;SDS011;4127;47.908;10.850;2022-12-16T20:18:35;42.70;;;25.00;;
8171;SDS011;4127;47.908;10.850;2022-12-16T20:21:55;39.67;;;24.23;;
8171;SDS011;4127;47.908;10.850;2022-12-16T20:24:56;45.47;;;25.17;;
8171;SDS011;4127;47.908;10.850;2022-12-16T20:27:59;37.87;;;23.50;;
8171;SDS011;4127;47.908;10.850;2022-12-16T20:31:13;42.37;;;24.50;;
8171;SDS011;4127;47.908;10.850;2022-12-16T20:34:16;41.87;;;23.70;;
8171;SDS011;4127;47.908;10.850;2022-12-16T20:37:08;42.77;;;25.70;;
8171;SDS011;4127;47.908;10.850;2022-12-16T20:40:07;40.80;;;25.80;;
8171;SDS011;4127;47.908;10.850;2022-12-16T20:43:17;38.00;;;23.70;;
8171;SDS011;4127;47.908;10.850;2022-12-16T20:46:19;41.07;;;24.77;;
8171;SDS011;4127;47.908;10.850;2022-12-16T20:49:29;48.07;;;28.13;;
8171;SDS011;4127;47.908;10.850;2022-12-16T20:56:03;41.00;;;25.13;;
8171;SDS011;4127;47.908;10.850;2022-12-16T21:03:08;39.70;;;23.87;;
8171;SDS011;4127;47.908;10.850;2022-12-16T21:06:18;36.67;;;24.03;;
8171;SDS011;4127;47.908;10.850;2022-12-16T21:09:15;39.43;;;24.67;;
8171;SDS011;4127;47.908;10.850;2022-12-16T21:12:14;40.80;;;25.80;;
8171;SDS011;4127;47.908;10.850;2022-12-16T21:15:20;43.70;;;25.60;;
8171;SDS011;4127;47.908;10.850;2022-12-16T21:18:28;44.60;;;27.23;;
8171;SDS011;4127;47.908;10.850;2022-12-16T21:21:37;39.63;;;26.03;;
8171;SDS011;4127;47.908;10.850;2022-12-16T21:24:43;41.13;;;24.50;;
8171;SDS011;4127;47.908;10.850;2022-12-16T21:27:39;36.17;;;23.27;;
8171;SDS011;4127;47.908;10.850;2022-12-16T21:30:27;37.23;;;25.20;;
8171;SDS011;4127;47.908;10.850;2022-12-16T21:33:14;38.87;;;24.77;;
8171;SDS011;4127;47.908;10.850;2022-12-16T21:39:27;35.17;;;23.67;;
8171;SDS011;4127;47.908;10.850;2022-12-16T21:42:32;33.77;;;22.20;;
8171;SDS011;4127;47.908;10.850;2022-12-16T21:45:34;33.47;;;22.90;;
8171;SDS011;4127;47.908;10.850;2022-12-16T21:49:02;36.57;;;22.50;;
8171;SDS011;4127;47.908;10.850;2022-12-16T21:52:03;35.97;;;24.07;;
8171;SDS011;4127;47.908;10.850;2022-12-16T21:55:16;38.83;;;24.37;;
8171;SDS011;4127;47.908;10.850;2022-12-16T22:02:02;40.73;;;24.50;;
8171;SDS011;4127;47.908;10.850;2022-12-16T22:04:56;43.97;;;26.77;;
8171;SDS011;4127;47.908;10.850;2022-12-16T22:07:48;44.37;;;27.13;;
8171;SDS011;4127;47.908;10.850;2022-12-16T22:11:11;40.50;;;26.80;;
8171;SDS011;4127;47.908;10.850;2022-12-16T22:14:17;38.07;;;24.60;;
8171;SDS011;4127;47.908;10.850;2022-12-16T22:17:15;35.37;;;23.27;;
8171;SDS011;4127;47.908;10.850;2022-12-16T22:20:17;38.83;;;25.50;;
8171;SDS011;4127;47.908;10.850;2022-12-16T22:23:49;34.03;;;23.23;;
8171;SDS011;4127;47.908;10.850;2022-12-16T22:27:24;35.30;;;22.83;;
8171;SDS011;4127;47.908;10.850;2022-12-16T22:30:36;38.40;;;24.00;;
8171;SDS011;4127;47.908;10.850;2022-12-16T22:37:47;32.57;;;22.57;;
8171;SDS011;4127;47.908;10.850;2022-12-16T22:44:53;34.57;;;23.23;;
8171;SDS011;4127;47.908;10.850;2022-12-16T22:48:28;34.80;;;22.80;;
8171;SDS011;4127;47.908;10.850;2022-12-16T22:51:50;37.47;;;25.50;;
8171;SDS011;4127;47.908;10.850;2022-12-16T22:55:12;36.43;;;24.70;;
8171;SDS011;4127;47.908;10.850;2022-12-16T23:14:13;29.17;;;21.57;;
8171;SDS011;4127;47.908;10.850;2022-12-16T23:24:11;27.00;;;19.97;;
8171;SDS011;4127;47.908;10.850;2022-12-16T23:27:01;27.27;;;18.70;;
8171;SDS011;4127;47.908;10.850;2022-12-16T23:30:31;29.37;;;20.67;;
8171;SDS011;4127;47.908;10.850;2022-12-16T23:33:40;27.23;;;18.87;;
8171;SDS011;4127;47.908;10.850;2022-12-16T23:36:40;28.00;;;18.97;;
8171;SDS011;4127;47.908;10.850;2022-12-16T23:39:53;28.03;;;20.20;;
8171;SDS011;4127;47.908;10.850;2022-12-16T23:42:52;29.03;;;20.07;;
8171;SDS011;4127;47.908;10.850;2022-12-16T23:45:51;32.90;;;21.27;;
8171;SDS011;4127;47.908;10.850;2022-12-16T23:53:53;35.00;;;22.43;;
8171;SDS011;4127;47.908;10.850;2022-12-16T23:56:55;35.93;;;22.47;;
8171;SDS011;4127;47.908;10.850;2022-12-16T23:59:48;41.13;;;24.23;;
